createdAt,value
2018-04-16T00:02:27.002Z,5.50
2018-04-16T00:04:55.789Z,5.60
2018-04-16T00:07:24.758Z,5.13
2018-04-16T00:09:57.230Z,4.97
2018-04-16T00:12:30.926Z,5.90
2018-04-16T00:15:02.093Z,6.40
2018-04-16T00:17:31.070Z,6.70
2018-04-16T00:20:04.398Z,10.87
2018-04-16T00:22:33.194Z,7.07
2018-04-16T00:25:01.203Z,6.77
2018-04-16T00:27:31.040Z,7.80
2018-04-16T00:30:07.266Z,7.40
2018-04-16T00:35:36.804Z,6.17
2018-04-16T00:38:10.468Z,6.63
2018-04-16T00:43:42.932Z,8.20
2018-04-16T00:46:16.652Z,6.40
2018-04-16T00:51:54.476Z,6.73
2018-04-16T00:54:28.016Z,8.40
2018-04-16T00:57:12.010Z,7.80
2018-04-16T00:59:53.968Z,7.43
2018-04-16T01:02:27.607Z,6.77
2018-04-16T01:05:06.580Z,8.77
2018-04-16T01:07:40.315Z,7.53
2018-04-16T01:10:19.919Z,8.57
2018-04-16T01:12:53.631Z,6.97
2018-04-16T01:15:27.319Z,7.00
2018-04-16T01:21:01.490Z,7.53
2018-04-16T01:23:38.219Z,11.43
2018-04-16T01:26:17.732Z,7.40
2018-04-16T01:28:53.968Z,7.07
2018-04-16T01:31:27.685Z,7.37
2018-04-16T01:36:59.113Z,7.37
2018-04-16T01:39:38.353Z,8.00
2018-04-16T01:42:12.937Z,7.73
2018-04-16T01:44:52.589Z,7.10
2018-04-16T01:47:26.757Z,7.50
2018-04-16T01:50:11.369Z,8.53
2018-04-16T01:52:46.749Z,7.80
2018-04-16T01:55:21.317Z,7.87
2018-04-16T01:58:04.637Z,8.30
2018-04-16T02:00:38.237Z,8.30
2018-04-16T02:03:13.957Z,7.13
2018-04-16T02:05:51.180Z,6.67
2018-04-16T02:08:26.904Z,6.70
2018-04-16T02:11:01.285Z,6.43
2018-04-16T02:16:36.616Z,7.37
2018-04-16T02:19:11.259Z,7.07
2018-04-16T02:21:44.911Z,6.60
2018-04-16T02:24:20.635Z,10.80
2018-04-16T02:26:59.347Z,7.60
2018-04-16T02:29:36.138Z,7.83
2018-04-16T02:32:10.651Z,7.10
2018-04-16T02:34:44.567Z,8.27
2018-04-16T02:37:18.222Z,8.05
2018-04-16T02:39:59.435Z,8.63
2018-04-16T02:42:38.324Z,7.30
2018-04-16T02:45:11.899Z,7.85
2018-04-16T02:47:46.523Z,6.80
2018-04-16T02:50:26.003Z,6.97
2018-04-16T02:53:04.012Z,7.00
2018-04-16T02:55:40.684Z,6.87
2018-04-16T02:58:21.927Z,6.50
2018-04-16T03:01:09.451Z,8.02
2018-04-16T03:03:43.211Z,7.10
2018-04-16T03:06:17.799Z,7.10
2018-04-16T03:08:53.452Z,6.20
2018-04-16T03:11:27.008Z,7.10
2018-04-16T03:14:02.477Z,6.60
2018-04-16T03:16:36.056Z,7.67
2018-04-16T03:19:21.637Z,8.57
2018-04-16T03:21:57.929Z,11.00
2018-04-16T03:24:37.033Z,7.05
2018-04-16T03:27:12.393Z,7.40
2018-04-16T03:29:56.681Z,7.80
2018-04-16T03:32:31.397Z,7.37
2018-04-16T03:35:23.678Z,7.43
2018-04-16T03:38:00.050Z,7.57
2018-04-16T03:40:36.486Z,7.47
2018-04-16T03:43:11.037Z,7.93
2018-04-16T03:45:52.521Z,8.07
2018-04-16T03:48:46.157Z,7.68
2018-04-16T03:54:19.093Z,8.40
2018-04-16T03:56:55.205Z,10.33
2018-04-16T03:59:29.104Z,10.38
2018-04-16T04:01:58.121Z,9.07
2018-04-16T04:04:29.885Z,8.23
2018-04-16T04:07:10.893Z,9.40
2018-04-16T04:09:50.989Z,7.77
2018-04-16T04:12:19.004Z,7.17
2018-04-16T04:14:48.900Z,7.57
2018-04-16T04:17:20.240Z,7.73
2018-04-16T04:19:49.217Z,7.33
2018-04-16T04:22:17.228Z,7.57
2018-04-16T04:24:57.859Z,7.97
2018-04-16T04:27:39.552Z,8.00
2018-04-16T04:30:19.292Z,8.73
2018-04-16T04:32:48.300Z,7.53
2018-04-16T04:35:16.349Z,8.63
2018-04-16T04:37:50.337Z,8.10
2018-04-16T04:40:20.249Z,6.80
2018-04-16T04:42:48.249Z,8.23
2018-04-16T04:45:20.639Z,7.63
2018-04-16T04:47:48.641Z,10.40
2018-04-16T04:50:16.648Z,9.33
2018-04-16T04:52:45.584Z,7.37
2018-04-16T04:55:20.196Z,7.03
2018-04-16T04:58:06.616Z,8.00
2018-04-16T05:00:37.336Z,8.93
2018-04-16T05:03:05.404Z,8.60
2018-04-16T05:05:35.362Z,8.70
2018-04-16T05:08:06.970Z,8.80
2018-04-16T05:10:34.984Z,8.73
2018-04-16T05:13:03.012Z,8.40
2018-04-16T05:15:32.596Z,8.93
2018-04-16T05:18:05.072Z,11.63
2018-04-16T05:20:34.048Z,7.97
2018-04-16T05:23:02.072Z,8.00
2018-04-16T05:25:37.751Z,7.30
2018-04-16T05:28:05.777Z,8.55
2018-04-16T05:30:34.752Z,7.23
2018-04-16T05:33:04.676Z,6.37
2018-04-16T05:35:33.671Z,8.33
2018-04-16T05:38:02.644Z,8.10
2018-04-16T05:40:31.604Z,7.20
2018-04-16T05:43:00.384Z,8.53
2018-04-16T05:45:29.441Z,7.90
2018-04-16T05:47:57.444Z,9.20
2018-04-16T05:50:27.396Z,9.80
2018-04-16T05:52:55.415Z,8.60
2018-04-16T05:55:24.315Z,7.80
2018-04-16T05:58:03.052Z,8.15
2018-04-16T06:00:31.056Z,8.57
2018-04-16T06:03:05.332Z,9.77
2018-04-16T06:05:33.356Z,9.37
2018-04-16T06:08:03.253Z,8.70
2018-04-16T06:10:31.319Z,8.20
2018-04-16T06:13:00.235Z,9.03
2018-04-16T06:15:29.058Z,8.73
2018-04-16T06:17:57.840Z,8.37
2018-04-16T06:20:26.999Z,9.53
2018-04-16T06:22:56.674Z,8.13
2018-04-16T06:25:26.596Z,9.53
2018-04-16T06:27:54.604Z,9.07
2018-04-16T06:30:31.315Z,8.17
2018-04-16T06:32:59.364Z,8.47
2018-04-16T06:35:27.371Z,9.17
2018-04-16T06:37:55.387Z,9.17
2018-04-16T06:40:27.608Z,8.50
2018-04-16T06:42:56.599Z,9.97
2018-04-16T06:45:24.615Z,8.27
2018-04-16T06:48:06.095Z,7.77
2018-04-16T06:50:36.106Z,8.20
2018-04-16T06:53:06.001Z,8.53
2018-04-16T06:55:33.995Z,9.27
2018-04-16T06:58:19.887Z,8.50
2018-04-16T07:00:48.664Z,8.00
2018-04-16T07:03:16.683Z,9.67
2018-04-16T07:05:44.700Z,7.80
2018-04-16T07:08:13.691Z,8.50
2018-04-16T07:10:47.952Z,8.47
2018-04-16T07:13:18.985Z,9.07
2018-04-16T07:15:47.930Z,9.30
2018-04-16T07:18:18.637Z,8.47
2018-04-16T07:20:47.529Z,9.80
2018-04-16T07:23:15.559Z,8.00
2018-04-16T07:25:56.132Z,8.20
2018-04-16T07:28:25.043Z,8.50
2018-04-16T07:30:53.044Z,8.23
2018-04-16T07:33:21.064Z,8.43
2018-04-16T07:35:49.090Z,9.10
2018-04-16T07:38:21.229Z,8.70
2018-04-16T07:40:49.243Z,8.97
2018-04-16T07:43:18.005Z,8.70
2018-04-16T07:45:48.008Z,10.23
2018-04-16T07:48:16.005Z,8.30
2018-04-16T07:50:44.805Z,9.37
2018-04-16T07:53:13.586Z,9.30
2018-04-16T07:55:43.341Z,9.03
2018-04-16T07:58:11.361Z,8.60
2018-04-16T08:00:43.198Z,8.53
2018-04-16T08:03:15.765Z,8.77
2018-04-16T08:05:44.757Z,9.20
2018-04-16T08:08:15.385Z,7.93
2018-04-16T08:10:43.409Z,9.53
2018-04-16T08:13:14.604Z,11.20
2018-04-16T08:15:42.618Z,8.33
2018-04-16T08:18:18.193Z,9.47
2018-04-16T08:20:53.954Z,8.63
2018-04-16T08:23:23.877Z,8.67
2018-04-16T08:25:52.882Z,7.07
2018-04-16T08:28:33.199Z,8.17
2018-04-16T08:31:01.206Z,7.97
2018-04-16T08:33:30.114Z,8.00
2018-04-16T08:35:58.149Z,9.17
2018-04-16T08:38:26.174Z,7.70
2018-04-16T08:40:57.578Z,9.30
2018-04-16T08:43:26.373Z,7.70
2018-04-16T08:45:55.286Z,6.83
2018-04-16T08:48:23.322Z,10.33
2018-04-16T08:50:55.350Z,8.30
2018-04-16T08:53:24.292Z,8.97
2018-04-16T08:55:55.825Z,8.50
2018-04-16T08:58:23.859Z,8.40
2018-04-16T09:00:58.241Z,9.17
2018-04-16T09:03:28.253Z,7.63
2018-04-16T09:05:56.269Z,10.30
2018-04-16T09:08:24.925Z,9.03
2018-04-16T09:10:57.229Z,7.50
2018-04-16T09:13:31.474Z,6.80
2018-04-16T09:16:03.642Z,8.07
2018-04-16T09:18:33.553Z,7.70
2018-04-16T09:21:01.562Z,7.47
2018-04-16T09:23:33.792Z,8.17
2018-04-16T09:26:06.414Z,7.40
2018-04-16T09:28:45.889Z,6.77
2018-04-16T09:31:18.994Z,10.47
2018-04-16T09:33:51.687Z,9.23
2018-04-16T09:36:23.330Z,7.40
2018-04-16T09:38:53.350Z,7.43
2018-04-16T09:41:21.342Z,7.50
2018-04-16T09:43:49.357Z,9.50
2018-04-16T09:46:19.267Z,7.00
2018-04-16T09:48:47.543Z,7.13
2018-04-16T09:51:20.506Z,9.23
2018-04-16T09:53:49.282Z,7.40
2018-04-16T09:56:18.178Z,7.07
2018-04-16T09:58:52.162Z,7.03
2018-04-16T10:01:24.920Z,6.33
2018-04-16T10:04:09.534Z,6.57
2018-04-16T10:06:38.310Z,6.23
2018-04-16T10:09:06.326Z,5.83
2018-04-16T10:11:35.355Z,6.70
2018-04-16T10:14:03.355Z,7.10
2018-04-16T10:16:32.153Z,6.93
2018-04-16T10:19:00.923Z,6.43
2018-04-16T10:21:36.502Z,8.43
2018-04-16T10:24:05.416Z,8.03
2018-04-16T10:26:33.426Z,7.47
2018-04-16T10:29:05.058Z,7.50
2018-04-16T10:31:33.055Z,14.30
2018-04-16T10:34:02.854Z,6.27
2018-04-16T10:36:35.203Z,7.23
2018-04-16T10:39:04.214Z,5.97
2018-04-16T10:41:32.235Z,9.37
2018-04-16T10:44:01.250Z,6.73
2018-04-16T10:46:33.414Z,6.73
2018-04-16T10:49:02.418Z,6.30
2018-04-16T10:51:31.322Z,8.20
2018-04-16T10:54:03.465Z,8.17
2018-04-16T10:56:31.486Z,10.20
2018-04-16T10:59:00.254Z,7.67
2018-04-16T11:01:28.265Z,7.97
2018-04-16T11:03:58.234Z,8.07
2018-04-16T11:06:26.238Z,8.20
2018-04-16T11:08:56.210Z,8.17
2018-04-16T11:11:24.238Z,8.20
2018-04-16T11:13:55.541Z,8.50
2018-04-16T11:16:23.586Z,11.10
2018-04-16T11:18:54.322Z,10.00
2018-04-16T11:21:35.260Z,9.80
2018-04-16T11:24:07.562Z,9.33
2018-04-16T11:26:36.570Z,9.53
2018-04-16T11:29:08.738Z,10.67
2018-04-16T11:31:37.737Z,10.93
2018-04-16T11:34:06.706Z,11.63
2018-04-16T11:36:36.726Z,11.37
2018-04-16T11:39:04.758Z,10.17
2018-04-16T11:41:33.683Z,8.50
2018-04-16T11:44:15.117Z,10.60
2018-04-16T11:46:43.122Z,9.83
2018-04-16T11:49:14.201Z,10.00
2018-04-16T11:51:42.214Z,11.07
2018-04-16T11:54:12.165Z,17.47
2018-04-16T11:56:40.215Z,13.67
2018-04-16T11:59:08.221Z,9.27
2018-04-16T12:01:38.214Z,9.57
2018-04-16T12:04:17.937Z,8.13
2018-04-16T12:06:48.913Z,11.67
2018-04-16T12:09:17.888Z,8.57
2018-04-16T12:11:46.881Z,10.13
2018-04-16T12:14:14.889Z,7.97
2018-04-16T12:16:43.674Z,11.10
2018-04-16T12:19:18.261Z,9.47
2018-04-16T12:21:47.274Z,11.23
2018-04-16T12:24:15.290Z,10.27
2018-04-16T12:26:50.454Z,10.90
2018-04-16T12:29:18.464Z,9.50
2018-04-16T12:31:47.418Z,7.40
2018-04-16T12:34:17.361Z,7.63
2018-04-16T12:36:45.371Z,7.70
2018-04-16T12:39:23.622Z,8.80
2018-04-16T12:41:52.599Z,9.53
2018-04-16T12:44:20.604Z,9.60
2018-04-16T12:46:50.608Z,8.70
2018-04-16T12:49:18.614Z,7.90
2018-04-16T12:51:46.630Z,17.67
2018-04-16T12:54:15.545Z,7.80
2018-04-16T12:56:46.613Z,7.20
2018-04-16T12:59:14.621Z,6.30
2018-04-16T13:01:47.209Z,6.70
2018-04-16T13:04:15.206Z,7.60
2018-04-16T13:06:45.902Z,7.20
2018-04-16T13:09:19.433Z,8.50
2018-04-16T13:11:53.010Z,6.23
2018-04-16T13:14:24.693Z,5.03
2018-04-16T13:16:56.181Z,6.70
2018-04-16T13:19:26.140Z,6.93
2018-04-16T13:21:56.145Z,4.10
2018-04-16T13:24:24.146Z,5.23
2018-04-16T13:26:52.931Z,6.10
2018-04-16T13:29:25.206Z,5.27
2018-04-16T13:32:05.002Z,5.27
2018-04-16T13:34:36.749Z,6.63
2018-04-16T13:37:16.190Z,5.27
2018-04-16T13:39:44.195Z,4.90
2018-04-16T13:42:12.189Z,9.20
2018-04-16T13:44:40.221Z,7.90
2018-04-16T13:47:08.221Z,5.00
2018-04-16T13:49:38.901Z,12.83
2018-04-16T13:52:06.924Z,5.80
2018-04-16T13:54:37.629Z,5.77
2018-04-16T13:57:05.625Z,7.40
2018-04-16T13:59:34.413Z,7.00
2018-04-16T14:02:03.218Z,7.60
2018-04-16T14:04:31.965Z,6.57
2018-04-16T14:07:00.873Z,7.27
2018-04-16T14:09:30.834Z,6.67
2018-04-16T14:11:58.907Z,6.03
2018-04-16T14:14:27.790Z,8.60
2018-04-16T14:16:57.729Z,7.40
2018-04-16T14:19:27.473Z,8.20
2018-04-16T14:21:56.253Z,6.70
2018-04-16T14:24:25.033Z,7.00
2018-04-16T14:26:53.033Z,8.07
2018-04-16T14:29:24.567Z,8.80
2018-04-16T14:31:56.104Z,6.57
2018-04-16T14:34:24.129Z,6.10
2018-04-16T14:36:55.532Z,9.77
2018-04-16T14:39:25.542Z,6.60
2018-04-16T14:41:53.550Z,9.60
2018-04-16T14:44:22.304Z,7.40
2018-04-16T14:46:58.866Z,7.43
2018-04-16T14:49:27.757Z,7.80
2018-04-16T14:51:55.760Z,7.27
2018-04-16T14:54:24.704Z,8.17
2018-04-16T14:56:53.685Z,5.80
2018-04-16T14:59:22.712Z,6.53
2018-04-16T15:01:55.476Z,8.90
2018-04-16T15:04:25.379Z,5.57
2018-04-16T15:06:54.160Z,5.50
2018-04-16T15:09:26.760Z,6.30
2018-04-16T15:11:56.760Z,11.70
2018-04-16T15:14:26.772Z,11.80
2018-04-16T15:16:54.780Z,6.50
2018-04-16T15:19:23.560Z,9.50
2018-04-16T15:21:54.256Z,7.40
2018-04-16T15:24:32.758Z,6.07
2018-04-16T15:27:02.501Z,5.73
2018-04-16T15:29:32.505Z,7.57
2018-04-16T15:32:00.501Z,4.87
2018-04-16T15:34:31.216Z,5.63
2018-04-16T15:36:59.227Z,6.13
2018-04-16T15:39:29.136Z,5.47
2018-04-16T15:41:58.915Z,5.90
2018-04-16T15:44:32.091Z,5.80
2018-04-16T15:47:00.130Z,11.80
2018-04-16T15:49:29.059Z,5.30
2018-04-16T15:51:57.071Z,5.10
2018-04-16T15:54:27.043Z,5.03
2018-04-16T15:56:55.042Z,4.90
2018-04-16T15:59:23.823Z,7.07
2018-04-16T16:01:51.935Z,4.50
2018-04-16T16:04:19.918Z,4.97
2018-04-16T16:06:47.911Z,5.43
2018-04-16T16:09:17.666Z,9.43
2018-04-16T16:11:47.318Z,4.77
2018-04-16T16:14:16.222Z,6.00
2018-04-16T16:16:46.226Z,5.40
2018-04-16T16:19:16.240Z,5.60
2018-04-16T16:21:44.250Z,6.40
2018-04-16T16:24:16.277Z,5.00
2018-04-16T16:26:44.298Z,4.70
2018-04-16T16:29:12.309Z,5.07
2018-04-16T16:31:42.337Z,5.07
2018-04-16T16:34:11.305Z,5.20
2018-04-16T16:36:41.225Z,4.43
2018-04-16T16:39:09.233Z,4.13
2018-04-16T16:41:41.541Z,5.60
2018-04-16T16:44:14.229Z,4.17
2018-04-16T16:46:42.250Z,3.63
2018-04-16T16:49:13.698Z,5.40
2018-04-16T16:51:43.688Z,4.10
2018-04-16T16:54:12.660Z,5.60
2018-04-16T16:56:43.830Z,4.27
2018-04-16T16:59:12.811Z,11.23
2018-04-16T17:01:44.378Z,4.80
2018-04-16T17:04:16.123Z,4.80
2018-04-16T17:06:47.883Z,5.17
2018-04-16T17:09:17.898Z,7.13
2018-04-16T17:11:50.143Z,6.13
2018-04-16T17:14:37.134Z,7.90
2018-04-16T17:20:04.533Z,5.30
2018-04-16T17:22:34.371Z,4.80
2018-04-16T17:25:07.311Z,4.30
2018-04-16T17:27:36.086Z,4.30
2018-04-16T17:30:04.855Z,5.67
2018-04-16T17:32:37.626Z,3.07
2018-04-16T17:35:09.359Z,3.60
2018-04-16T17:37:37.382Z,2.30
2018-04-16T17:40:06.151Z,3.63
2018-04-16T17:42:35.315Z,3.33
2018-04-16T17:45:06.366Z,4.63
2018-04-16T17:47:41.679Z,25.40
2018-04-16T17:50:11.650Z,12.33
2018-04-16T17:52:42.319Z,9.30
2018-04-16T17:55:12.290Z,4.17
2018-04-16T17:57:41.971Z,4.50
2018-04-16T18:00:09.983Z,6.80
2018-04-16T18:02:38.778Z,4.07
2018-04-16T18:05:16.799Z,3.13
2018-04-16T18:07:48.798Z,2.93
2018-04-16T18:10:16.810Z,3.50
2018-04-16T18:12:44.826Z,2.67
2018-04-16T18:15:15.891Z,4.03
2018-04-16T18:17:45.831Z,5.70
2018-04-16T18:20:17.562Z,2.40
2018-04-16T18:22:46.547Z,5.43
2018-04-16T18:25:15.523Z,2.70
2018-04-16T18:27:47.190Z,3.60
2018-04-16T18:30:15.239Z,5.10
2018-04-16T18:32:51.098Z,2.30
2018-04-16T18:35:19.103Z,2.60
2018-04-16T18:37:49.799Z,6.57
2018-04-16T18:40:27.587Z,3.00
2018-04-16T18:43:16.329Z,11.30
2018-04-16T18:45:45.335Z,3.83
2018-04-16T18:48:13.563Z,2.90
2018-04-16T18:50:42.393Z,4.23
2018-04-16T18:53:18.872Z,5.00
2018-04-16T18:55:46.989Z,10.17
2018-04-16T18:58:15.783Z,9.77
2018-04-16T19:00:44.552Z,7.90
2018-04-16T19:03:12.588Z,9.90
2018-04-16T19:05:43.735Z,10.93
2018-04-16T19:08:16.351Z,13.23
2018-04-16T19:10:46.127Z,14.00
2018-04-16T19:13:15.175Z,13.53
2018-04-16T19:15:43.271Z,15.30
2018-04-16T19:18:11.228Z,13.90
2018-04-16T19:20:44.964Z,11.77
2018-04-16T19:23:13.963Z,10.83
2018-04-16T19:25:42.956Z,10.43
2018-04-16T19:28:15.856Z,10.20
2018-04-16T19:30:43.875Z,14.53
2018-04-16T19:33:17.514Z,10.50
2018-04-16T19:35:45.579Z,11.33
2018-04-16T19:38:14.610Z,9.57
2018-04-16T19:40:42.648Z,10.67
2018-04-16T19:43:10.683Z,12.70
2018-04-16T19:45:40.635Z,12.80
2018-04-16T19:48:08.667Z,12.40
2018-04-16T19:50:37.451Z,13.80
2018-04-16T19:53:05.466Z,12.30
2018-04-16T19:55:40.124Z,12.40
2018-04-16T19:58:13.907Z,10.77
2018-04-16T20:00:41.930Z,11.90
2018-04-16T20:03:17.095Z,11.97
2018-04-16T20:05:45.087Z,11.13
2018-04-16T20:08:14.890Z,11.97
2018-04-16T20:10:42.927Z,11.90
2018-04-16T20:13:10.934Z,13.00
2018-04-16T20:15:38.959Z,12.33
2018-04-16T20:18:14.702Z,12.40
2018-04-16T20:20:42.727Z,12.70
2018-04-16T20:23:17.214Z,12.83
2018-04-16T20:25:46.234Z,12.13
2018-04-16T20:28:14.262Z,13.00
2018-04-16T20:30:46.930Z,14.40
2018-04-16T20:33:14.969Z,13.43
2018-04-16T20:35:43.782Z,14.40
2018-04-16T20:38:12.730Z,15.53
2018-04-16T20:40:41.698Z,15.80
2018-04-16T20:43:11.734Z,13.80
2018-04-16T20:45:43.394Z,13.80
2018-04-16T20:48:12.375Z,13.10
2018-04-16T20:50:40.415Z,13.73
2018-04-16T20:53:12.232Z,13.85
2018-04-16T20:55:45.691Z,19.58
2018-04-16T20:58:13.726Z,16.37
2018-04-16T21:00:42.518Z,14.20
2018-04-16T21:03:14.943Z,16.77
2018-04-16T21:05:46.706Z,14.82
2018-04-16T21:08:15.530Z,20.73
2018-04-16T21:10:43.558Z,15.50
2018-04-16T21:13:16.010Z,14.05
2018-04-16T21:15:44.065Z,20.73
2018-04-16T21:18:12.114Z,14.60
2018-04-16T21:20:40.190Z,16.73
2018-04-16T21:23:08.258Z,14.73
2018-04-16T21:25:37.038Z,15.55
2018-04-16T21:28:05.138Z,15.57
2018-04-16T21:30:33.198Z,15.10
2018-04-16T21:33:02.233Z,15.75
2018-04-16T21:35:30.254Z,19.65
2018-04-16T21:37:59.310Z,13.57
2018-04-16T21:40:29.094Z,14.95
2018-04-16T21:43:04.613Z,14.18
2018-04-16T21:45:33.587Z,18.65
2018-04-16T21:48:01.626Z,15.73
2018-04-16T21:50:30.581Z,14.82
2018-04-16T21:52:58.629Z,18.73
2018-04-16T21:55:28.388Z,17.35
2018-04-16T21:57:59.621Z,17.20
2018-04-16T22:00:27.617Z,15.15
2018-04-16T22:02:58.309Z,22.58
2018-04-16T22:05:26.337Z,18.75
2018-04-16T22:07:54.365Z,19.83
2018-04-16T22:10:22.390Z,18.92
2018-04-16T22:12:51.322Z,17.85
2018-04-16T22:15:19.365Z,19.70
2018-04-16T22:17:48.385Z,18.08
2018-04-16T22:20:16.408Z,18.73
2018-04-16T22:22:46.149Z,17.90
2018-04-16T22:25:15.173Z,18.33
2018-04-16T22:27:45.669Z,19.00
2018-04-16T22:30:15.709Z,17.60
2018-04-16T22:32:45.269Z,18.23
2018-04-16T22:35:14.353Z,19.08
2018-04-16T22:37:43.313Z,17.70
2018-04-16T22:40:12.285Z,17.77
2018-04-16T22:42:41.289Z,19.45
2018-04-16T22:45:11.356Z,17.40
2018-04-16T22:47:40.112Z,18.55
2018-04-16T22:50:09.892Z,19.27
2018-04-16T22:52:48.428Z,20.48
2018-04-16T22:55:18.588Z,19.25
2018-04-16T22:57:46.643Z,18.30
2018-04-16T23:00:15.603Z,19.42
2018-04-16T23:02:44.601Z,19.77
2018-04-16T23:05:12.632Z,18.40
2018-04-16T23:07:40.648Z,16.08
2018-04-16T23:10:09.456Z,15.43
2018-04-16T23:12:37.487Z,13.98
2018-04-16T23:15:05.500Z,13.80
2018-04-16T23:17:33.532Z,14.45
2018-04-16T23:20:02.533Z,16.05
2018-04-16T23:22:36.707Z,14.18
2018-04-16T23:25:11.988Z,15.70
2018-04-16T23:27:44.132Z,19.60
2018-04-16T23:30:12.163Z,16.95
2018-04-16T23:32:40.190Z,14.80
2018-04-16T23:35:10.964Z,17.20
2018-04-16T23:37:38.964Z,17.25
2018-04-16T23:40:07.968Z,17.27
2018-04-16T23:42:39.733Z,16.10
2018-04-16T23:45:07.785Z,18.27
2018-04-16T23:47:35.793Z,17.90
2018-04-16T23:50:05.573Z,20.83
2018-04-16T23:52:33.602Z,16.30
2018-04-16T23:55:01.629Z,17.35
2018-04-16T23:57:49.630Z,17.20
